sensor_id;sensor_type;location;lat;lon;timestamp;pressure;altitude;pressure_sealevel;temperature;humidity
71107;BME280;58763;47.982;11.516;2023-04-26T00:02:12;94049.63;;;5.40;84.14
71107;BME280;58763;47.982;11.516;2023-04-26T00:04:38;94049.84;;;5.33;84.82
71107;BME280;58763;47.982;11.516;2023-04-26T00:07:04;94042.13;;;5.42;84.48
71107;BME280;58763;47.982;11.516;2023-04-26T00:09:30;94039.72;;;5.40;83.98
71107;BME280;58763;47.982;11.516;2023-04-26T00:11:56;94047.97;;;5.34;84.25
71107;BME280;58763;47.982;11.516;2023-04-26T00:14:22;94047.47;;;5.42;84.58
71107;BME280;58763;47.982;11.516;2023-04-26T00:16:47;94043.47;;;5.44;83.80
71107;BME280;58763;47.982;11.516;2023-04-26T00:19:13;94036.22;;;5.40;84.20
71107;BME280;58763;47.982;11.516;2023-04-26T00:21:40;94049.66;;;5.45;84.27
71107;BME280;58763;47.982;11.516;2023-04-26T00:24:06;94044.31;;;5.45;84.44
71107;BME280;58763;47.982;11.516;2023-04-26T00:26:32;94046.97;;;5.45;84.38
71107;BME280;58763;47.982;11.516;2023-04-26T00:28:58;94046.22;;;5.49;84.48
71107;BME280;58763;47.982;11.516;2023-04-26T00:31:24;94038.19;;;5.54;83.36
71107;BME280;58763;47.982;11.516;2023-04-26T00:33:50;94046.22;;;5.49;83.64
71107;BME280;58763;47.982;11.516;2023-04-26T00:36:15;94044.34;;;5.50;83.52
71107;BME280;58763;47.982;11.516;2023-04-26T00:38:44;94044.06;;;5.51;83.42
71107;BME280;58763;47.982;11.516;2023-04-26T00:41:10;94046.50;;;5.53;83.62
71107;BME280;58763;47.982;11.516;2023-04-26T00:43:36;94044.00;;;5.41;83.77
71107;BME280;58763;47.982;11.516;2023-04-26T00:46:02;94044.00;;;5.41;84.34
71107;BME280;58763;47.982;11.516;2023-04-26T00:48:28;94042.38;;;5.40;83.97
71107;BME280;58763;47.982;11.516;2023-04-26T00:50:54;94049.13;;;5.43;84.34
71107;BME280;58763;47.982;11.516;2023-04-26T00:53:20;94048.13;;;5.54;83.89
71107;BME280;58763;47.982;11.516;2023-04-26T00:55:46;94044.13;;;5.56;83.93
71107;BME280;58763;47.982;11.516;2023-04-26T00:58:13;94042.28;;;5.62;83.70
71107;BME280;58763;47.982;11.516;2023-04-26T01:00:39;94044.44;;;5.65;83.49
71107;BME280;58763;47.982;11.516;2023-04-26T01:03:04;94050.06;;;5.64;83.29
71107;BME280;58763;47.982;11.516;2023-04-26T01:05:30;94054.91;;;5.67;83.50
71107;BME280;58763;47.982;11.516;2023-04-26T01:07:55;94054.06;;;5.61;83.72
71107;BME280;58763;47.982;11.516;2023-04-26T01:10:22;94056.25;;;5.64;83.46
71107;BME280;58763;47.982;11.516;2023-04-26T01:12:48;94064.84;;;5.66;83.33
71107;BME280;58763;47.982;11.516;2023-04-26T01:15:14;94064.75;;;5.56;83.62
71107;BME280;58763;47.982;11.516;2023-04-26T01:17:40;94067.47;;;5.61;83.90
71107;BME280;58763;47.982;11.516;2023-04-26T01:20:06;94069.63;;;5.59;83.96
71107;BME280;58763;47.982;11.516;2023-04-26T01:22:34;94064.78;;;5.61;83.34
71107;BME280;58763;47.982;11.516;2023-04-26T01:25:03;94059.16;;;5.57;83.02
71107;BME280;58763;47.982;11.516;2023-04-26T01:27:28;94067.97;;;5.53;83.12
71107;BME280;58763;47.982;11.516;2023-04-26T01:29:54;94067.56;;;5.39;82.44
71107;BME280;58763;47.982;11.516;2023-04-26T01:32:20;94073.50;;;5.10;82.34
71107;BME280;58763;47.982;11.516;2023-04-26T01:34:45;94071.31;;;5.07;83.08
71107;BME280;58763;47.982;11.516;2023-04-26T01:37:11;94067.59;;;5.08;83.12
71107;BME280;58763;47.982;11.516;2023-04-26T01:39:37;94071.78;;;4.99;82.42
71107;BME280;58763;47.982;11.516;2023-04-26T01:42:03;94071.13;;;4.86;82.95
71107;BME280;58763;47.982;11.516;2023-04-26T01:44:29;94077.53;;;4.85;83.33
71107;BME280;58763;47.982;11.516;2023-04-26T01:46:55;94073.69;;;4.76;83.55
71107;BME280;58763;47.982;11.516;2023-04-26T01:49:20;94075.94;;;4.84;83.22
71107;BME280;58763;47.982;11.516;2023-04-26T01:51:46;94083.63;;;4.76;83.29
71107;BME280;58763;47.982;11.516;2023-04-26T01:54:11;94081.19;;;4.74;83.87
71107;BME280;58763;47.982;11.516;2023-04-26T01:56:37;94076.38;;;4.76;83.57
71107;BME280;58763;47.982;11.516;2023-04-26T01:59:03;94078.00;;;4.77;83.85
71107;BME280;58763;47.982;11.516;2023-04-26T02:01:28;94078.34;;;4.86;83.47
71107;BME280;58763;47.982;11.516;2023-04-26T02:03:54;94073.97;;;5.02;83.22
71107;BME280;58763;47.982;11.516;2023-04-26T02:06:20;94079.63;;;5.05;82.75
71107;BME280;58763;47.982;11.516;2023-04-26T02:08:46;94085.84;;;5.11;82.26
71107;BME280;58763;47.982;11.516;2023-04-26T02:11:11;94080.66;;;5.04;82.30
71107;BME280;58763;47.982;11.516;2023-04-26T02:13:37;94086.22;;;4.98;82.84
71107;BME280;58763;47.982;11.516;2023-04-26T02:16:03;94075.78;;;4.96;83.03
71107;BME280;58763;47.982;11.516;2023-04-26T02:18:28;94073.72;;;5.03;82.56
71107;BME280;58763;47.982;11.516;2023-04-26T02:20:54;94078.34;;;5.13;82.83
71107;BME280;58763;47.982;11.516;2023-04-26T02:23:20;94081.19;;;5.01;81.70
71107;BME280;58763;47.982;11.516;2023-04-26T02:25:47;94073.66;;;4.98;81.85
71107;BME280;58763;47.982;11.516;2023-04-26T02:28:13;94078.72;;;4.95;82.26
71107;BME280;58763;47.982;11.516;2023-04-26T02:30:41;94075.50;;;4.98;82.46
71107;BME280;58763;47.982;11.516;2023-04-26T02:33:06;94073.50;;;5.10;81.98
71107;BME280;58763;47.982;11.516;2023-04-26T02:35:34;94067.03;;;5.06;81.72
71107;BME280;58763;47.982;11.516;2023-04-26T02:38:01;94070.53;;;5.11;81.56
71107;BME280;58763;47.982;11.516;2023-04-26T02:40:26;94063.19;;;4.97;81.82
71107;BME280;58763;47.982;11.516;2023-04-26T02:42:52;94063.25;;;5.02;82.13
71107;BME280;58763;47.982;11.516;2023-04-26T02:45:17;94068.84;;;5.00;82.34
71107;BME280;58763;47.982;11.516;2023-04-26T02:47:43;94070.47;;;5.01;82.46
71107;BME280;58763;47.982;11.516;2023-04-26T02:50:09;94066.47;;;5.04;82.37
71107;BME280;58763;47.982;11.516;2023-04-26T02:52:37;94059.50;;;5.03;82.70
71107;BME280;58763;47.982;11.516;2023-04-26T02:55:03;94055.22;;;5.02;82.24
71107;BME280;58763;47.982;11.516;2023-04-26T02:57:32;94059.59;;;5.13;82.29
71107;BME280;58763;47.982;11.516;2023-04-26T02:59:58;94061.97;;;5.09;82.21
71107;BME280;58763;47.982;11.516;2023-04-26T03:02:23;94057.13;;;5.06;82.60
71107;BME280;58763;47.982;11.516;2023-04-26T03:04:49;94065.44;;;5.10;82.39
71107;BME280;58763;47.982;11.516;2023-04-26T03:07:15;94063.28;;;5.07;82.17
71107;BME280;58763;47.982;11.516;2023-04-26T03:09:40;94059.00;;;5.06;82.47
71107;BME280;58763;47.982;11.516;2023-04-26T03:12:06;94060.91;;;5.10;82.27
71107;BME280;58763;47.982;11.516;2023-04-26T03:14:33;94069.22;;;5.14;82.08
71107;BME280;58763;47.982;11.516;2023-04-26T03:16:59;94065.50;;;5.15;81.70
71107;BME280;58763;47.982;11.516;2023-04-26T03:19:25;94070.59;;;5.16;81.65
71107;BME280;58763;47.982;11.516;2023-04-26T03:21:54;94071.97;;;5.19;81.58
71107;BME280;58763;47.982;11.516;2023-04-26T03:24:20;94071.16;;;5.18;81.35
71107;BME280;58763;47.982;11.516;2023-04-26T03:26:45;94063.31;;;5.12;81.67
71107;BME280;58763;47.982;11.516;2023-04-26T03:29:11;94077.19;;;5.04;81.88
71107;BME280;58763;47.982;11.516;2023-04-26T03:31:37;94075.03;;;5.01;82.82
71107;BME280;58763;47.982;11.516;2023-04-26T03:34:03;94080.88;;;4.98;82.56
71107;BME280;58763;47.982;11.516;2023-04-26T03:36:29;94074.53;;;5.04;82.63
71107;BME280;58763;47.982;11.516;2023-04-26T03:38:55;94077.38;;;4.97;82.63
71107;BME280;58763;47.982;11.516;2023-04-26T03:41:21;94078.75;;;5.00;82.80
71107;BME280;58763;47.982;11.516;2023-04-26T03:43:47;94082.78;;;5.02;82.33
71107;BME280;58763;47.982;11.516;2023-04-26T03:46:13;94091.25;;;5.16;82.31
71107;BME280;58763;47.982;11.516;2023-04-26T03:48:39;94091.19;;;5.11;82.42
71107;BME280;58763;47.982;11.516;2023-04-26T03:51:05;94089.03;;;5.08;82.38
71107;BME280;58763;47.982;11.516;2023-04-26T03:53:31;94087.44;;;5.12;81.39
71107;BME280;58763;47.982;11.516;2023-04-26T03:55:57;94088.16;;;5.02;81.87
71107;BME280;58763;47.982;11.516;2023-04-26T03:58:24;94095.28;;;4.92;82.27
71107;BME280;58763;47.982;11.516;2023-04-26T04:00:50;94090.50;;;4.94;82.51
71107;BME280;58763;47.982;11.516;2023-04-26T04:03:16;94091.69;;;4.81;83.22
71107;BME280;58763;47.982;11.516;2023-04-26T04:05:42;94092.97;;;5.00;82.77
71107;BME280;58763;47.982;11.516;2023-04-26T04:08:08;94089.47;;;5.00;82.88
71107;BME280;58763;47.982;11.516;2023-04-26T04:10:33;94094.59;;;5.01;83.25
71107;BME280;58763;47.982;11.516;2023-04-26T04:12:59;94086.34;;;5.08;83.20
71107;BME280;58763;47.982;11.516;2023-04-26T04:15:24;94087.59;;;5.00;82.84
71107;BME280;58763;47.982;11.516;2023-04-26T04:17:51;94089.47;;;5.00;83.21
71107;BME280;58763;47.982;11.516;2023-04-26T04:20:16;94090.00;;;4.97;82.94
71107;BME280;58763;47.982;11.516;2023-04-26T04:22:42;94098.47;;;4.88;83.38
71107;BME280;58763;47.982;11.516;2023-04-26T04:25:08;94100.09;;;4.89;83.68
71107;BME280;58763;47.982;11.516;2023-04-26T04:27:38;94098.13;;;4.80;84.07
71107;BME280;58763;47.982;11.516;2023-04-26T04:30:07;94101.66;;;4.85;84.05
71107;BME280;58763;47.982;11.516;2023-04-26T04:32:34;94104.25;;;4.75;84.31
71107;BME280;58763;47.982;11.516;2023-04-26T04:34:59;94107.34;;;4.67;84.82
71107;BME280;58763;47.982;11.516;2023-04-26T04:37:26;94098.56;;;4.72;84.86
71107;BME280;58763;47.982;11.516;2023-04-26T04:39:53;94110.56;;;4.64;85.44
71107;BME280;58763;47.982;11.516;2023-04-26T04:42:20;94123.34;;;4.62;85.01
71107;BME280;58763;47.982;11.516;2023-04-26T04:44:46;94119.69;;;4.68;85.60
71107;BME280;58763;47.982;11.516;2023-04-26T04:47:12;94120.19;;;4.65;85.29
71107;BME280;58763;47.982;11.516;2023-04-26T04:49:38;94120.59;;;4.79;85.16
71107;BME280;58763;47.982;11.516;2023-04-26T04:52:04;94117.38;;;4.77;85.04
71107;BME280;58763;47.982;11.516;2023-04-26T04:54:31;94120.81;;;4.72;85.39
71107;BME280;58763;47.982;11.516;2023-04-26T04:56:57;94119.13;;;4.66;85.76
71107;BME280;58763;47.982;11.516;2023-04-26T04:59:23;94121.00;;;4.66;85.49
71107;BME280;58763;47.982;11.516;2023-04-26T05:01:49;94122.44;;;4.73;85.39
71107;BME280;58763;47.982;11.516;2023-04-26T05:04:15;94128.84;;;4.72;85.42
71107;BME280;58763;47.982;11.516;2023-04-26T05:06:41;94142.22;;;4.72;85.66
71107;BME280;58763;47.982;11.516;2023-04-26T05:09:07;94136.06;;;4.72;85.72
71107;BME280;58763;47.982;11.516;2023-04-26T05:11:34;94144.09;;;4.72;85.95
71107;BME280;58763;47.982;11.516;2023-04-26T05:14:00;94138.19;;;4.70;86.27
71107;BME280;58763;47.982;11.516;2023-04-26T05:16:26;94137.06;;;4.66;86.59
71107;BME280;58763;47.982;11.516;2023-04-26T05:18:54;94144.03;;;4.67;86.89
71107;BME280;58763;47.982;11.516;2023-04-26T05:21:20;94143.28;;;4.71;86.41
71107;BME280;58763;47.982;11.516;2023-04-26T05:23:46;94143.53;;;4.70;85.89
71107;BME280;58763;47.982;11.516;2023-04-26T05:26:14;94141.59;;;4.65;86.26
71107;BME280;58763;47.982;11.516;2023-04-26T05:28:39;94139.91;;;4.81;86.00
71107;BME280;58763;47.982;11.516;2023-04-26T05:31:06;94156.19;;;4.74;86.30
71107;BME280;58763;47.982;11.516;2023-04-26T05:33:31;94144.66;;;4.74;86.30
71107;BME280;58763;47.982;11.516;2023-04-26T05:35:57;94141.22;;;4.78;86.19
71107;BME280;58763;47.982;11.516;2023-04-26T05:38:23;94153.28;;;4.76;86.17
71107;BME280;58763;47.982;11.516;2023-04-26T05:40:49;94150.13;;;4.84;85.96
71107;BME280;58763;47.982;11.516;2023-04-26T05:43:15;94152.53;;;4.85;85.45
71107;BME280;58763;47.982;11.516;2023-04-26T05:45:55;94153.91;;;4.88;85.63
71107;BME280;58763;47.982;11.516;2023-04-26T05:48:23;94161.94;;;4.88;85.32
71107;BME280;58763;47.982;11.516;2023-04-26T05:50:50;94172.19;;;4.91;85.27
71107;BME280;58763;47.982;11.516;2023-04-26T05:53:17;94158.53;;;4.93;85.45
71107;BME280;58763;47.982;11.516;2023-04-26T05:55:43;94168.00;;;5.00;85.29
71107;BME280;58763;47.982;11.516;2023-04-26T05:58:10;94153.91;;;5.10;84.69
71107;BME280;58763;47.982;11.516;2023-04-26T06:00:36;94157.50;;;5.20;84.64
71107;BME280;58763;47.982;11.516;2023-04-26T06:03:03;94160.41;;;5.19;84.28
71107;BME280;58763;47.982;11.516;2023-04-26T06:05:30;94153.19;;;5.19;85.03
71107;BME280;58763;47.982;11.516;2023-04-26T06:07:55;94160.53;;;5.29;83.83
71107;BME280;58763;47.982;11.516;2023-04-26T06:10:21;94161.56;;;5.28;84.17
71107;BME280;58763;47.982;11.516;2023-04-26T06:12:47;94163.16;;;5.24;82.81
71107;BME280;58763;47.982;11.516;2023-04-26T06:15:12;94167.69;;;5.23;83.29
71107;BME280;58763;47.982;11.516;2023-04-26T06:17:39;94168.22;;;5.20;83.89
71107;BME280;58763;47.982;11.516;2023-04-26T06:20:06;94172.22;;;5.18;85.30
71107;BME280;58763;47.982;11.516;2023-04-26T06:22:33;94176.41;;;5.09;84.70
71107;BME280;58763;47.982;11.516;2023-04-26T06:24:59;94173.72;;;5.09;84.69
71107;BME280;58763;47.982;11.516;2023-04-26T06:27:25;94182.06;;;5.12;83.91
71107;BME280;58763;47.982;11.516;2023-04-26T06:29:50;94185.44;;;5.03;83.88
71107;BME280;58763;47.982;11.516;2023-04-26T06:32:16;94191.00;;;4.96;84.22
71107;BME280;58763;47.982;11.516;2023-04-26T06:34:42;94187.97;;;4.87;84.60
71107;BME280;58763;47.982;11.516;2023-04-26T06:37:10;94196.22;;;4.86;85.06
71107;BME280;58763;47.982;11.516;2023-04-26T06:39:36;94193.34;;;4.93;85.06
71107;BME280;58763;47.982;11.516;2023-04-26T06:42:05;94195.66;;;5.06;84.50
71107;BME280;58763;47.982;11.516;2023-04-26T06:44:31;94179.19;;;5.19;84.22
71107;BME280;58763;47.982;11.516;2023-04-26T06:46:57;94185.16;;;5.26;83.84
71107;BME280;58763;47.982;11.516;2023-04-26T06:49:23;94183.03;;;5.28;83.19
71107;BME280;58763;47.982;11.516;2023-04-26T06:51:49;94186.56;;;5.33;82.33
71107;BME280;58763;47.982;11.516;2023-04-26T06:54:17;94187.69;;;5.37;82.73
71107;BME280;58763;47.982;11.516;2023-04-26T06:56:44;94182.47;;;5.26;82.65
71107;BME280;58763;47.982;11.516;2023-04-26T06:59:10;94184.72;;;5.34;80.75
71107;BME280;58763;47.982;11.516;2023-04-26T07:01:35;94182.09;;;5.44;80.80
71107;BME280;58763;47.982;11.516;2023-04-26T07:04:02;94185.53;;;5.66;81.01
71107;BME280;58763;47.982;11.516;2023-04-26T07:06:29;94191.56;;;5.78;81.15
71107;BME280;58763;47.982;11.516;2023-04-26T07:08:58;94187.00;;;5.79;77.92
71107;BME280;58763;47.982;11.516;2023-04-26T07:11:24;94181.50;;;5.90;77.96
71107;BME280;58763;47.982;11.516;2023-04-26T07:13:49;94182.63;;;5.99;78.63
71107;BME280;58763;47.982;11.516;2023-04-26T07:16:15;94182.16;;;6.07;78.20
71107;BME280;58763;47.982;11.516;2023-04-26T07:18:41;94181.78;;;5.94;78.57
71107;BME280;58763;47.982;11.516;2023-04-26T07:21:07;94181.00;;;5.98;77.70
71107;BME280;58763;47.982;11.516;2023-04-26T07:23:33;94182.69;;;6.04;77.85
71107;BME280;58763;47.982;11.516;2023-04-26T07:25:59;94181.41;;;6.17;77.87
71107;BME280;58763;47.982;11.516;2023-04-26T07:28:29;94180.44;;;6.33;77.82
71107;BME280;58763;47.982;11.516;2023-04-26T07:30:55;94176.78;;;6.49;78.18
71107;BME280;58763;47.982;11.516;2023-04-26T07:33:20;94181.88;;;6.46;75.77
71107;BME280;58763;47.982;11.516;2023-04-26T07:35:53;94175.41;;;6.42;76.33
71107;BME280;58763;47.982;11.516;2023-04-26T07:38:20;94178.66;;;6.49;77.05
71107;BME280;58763;47.982;11.516;2023-04-26T07:40:45;94173.34;;;6.59;75.30
71107;BME280;58763;47.982;11.516;2023-04-26T07:43:11;94175.53;;;6.67;73.27
71107;BME280;58763;47.982;11.516;2023-04-26T07:45:37;94165.34;;;6.74;72.73
71107;BME280;58763;47.982;11.516;2023-04-26T07:48:03;94172.91;;;6.82;73.17
71107;BME280;58763;47.982;11.516;2023-04-26T07:50:29;94173.22;;;6.95;71.46
71107;BME280;58763;47.982;11.516;2023-04-26T07:52:54;94171.44;;;7.16;75.22
71107;BME280;58763;47.982;11.516;2023-04-26T07:55:20;94177.91;;;7.25;74.38
71107;BME280;58763;47.982;11.516;2023-04-26T07:57:46;94174.97;;;7.37;72.95
71107;BME280;58763;47.982;11.516;2023-04-26T08:00:12;94174.97;;;7.32;71.55
71107;BME280;58763;47.982;11.516;2023-04-26T08:02:38;94170.66;;;7.31;72.14
71107;BME280;58763;47.982;11.516;2023-04-26T08:05:04;94170.41;;;7.37;70.86
71107;BME280;58763;47.982;11.516;2023-04-26T08:07:31;94172.88;;;7.49;70.47
71107;BME280;58763;47.982;11.516;2023-04-26T08:09:57;94167.75;;;7.62;70.22
71107;BME280;58763;47.982;11.516;2023-04-26T08:12:23;94171.81;;;7.65;71.79
71107;BME280;58763;47.982;11.516;2023-04-26T08:14:48;94174.75;;;7.63;72.44
71107;BME280;58763;47.982;11.516;2023-04-26T08:17:14;94176.38;;;7.59;73.35
71107;BME280;58763;47.982;11.516;2023-04-26T08:19:40;94173.16;;;7.62;72.33
71107;BME280;58763;47.982;11.516;2023-04-26T08:22:06;94171.75;;;7.40;70.83
71107;BME280;58763;47.982;11.516;2023-04-26T08:24:32;94175.56;;;7.59;72.98
71107;BME280;58763;47.982;11.516;2023-04-26T08:26:57;94175.31;;;7.76;73.50
71107;BME280;58763;47.982;11.516;2023-04-26T08:29:24;94165.38;;;7.86;72.99
71107;BME280;58763;47.982;11.516;2023-04-26T08:31:51;94170.47;;;7.88;73.90
71107;BME280;58763;47.982;11.516;2023-04-26T08:34:17;94172.63;;;7.96;71.42
71107;BME280;58763;47.982;11.516;2023-04-26T08:36:42;94161.31;;;7.89;71.40
71107;BME280;58763;47.982;11.516;2023-04-26T08:39:10;94168.84;;;8.12;72.70
71107;BME280;58763;47.982;11.516;2023-04-26T08:41:42;94169.66;;;8.22;69.81
71107;BME280;58763;47.982;11.516;2023-04-26T08:44:09;94166.94;;;8.43;70.05
71107;BME280;58763;47.982;11.516;2023-04-26T08:49:41;94162.88;;;8.60;71.70
71107;BME280;58763;47.982;11.516;2023-04-26T08:52:10;94169.38;;;8.44;68.90
71107;BME280;58763;47.982;11.516;2023-04-26T08:54:37;94169.94;;;8.31;69.75
71107;BME280;58763;47.982;11.516;2023-04-26T08:57:03;94174.25;;;8.27;72.04
71107;BME280;58763;47.982;11.516;2023-04-26T08:59:29;94173.41;;;8.21;70.00
71107;BME280;58763;47.982;11.516;2023-04-26T09:01:56;94173.16;;;8.23;69.30
71107;BME280;58763;47.982;11.516;2023-04-26T09:04:22;94176.13;;;8.11;69.36
71107;BME280;58763;47.982;11.516;2023-04-26T09:06:49;94180.41;;;8.17;69.85
71107;BME280;58763;47.982;11.516;2023-04-26T09:09:18;94175.31;;;8.21;69.70
71107;BME280;58763;47.982;11.516;2023-04-26T09:11:58;94178.53;;;8.48;70.96
71107;BME280;58763;47.982;11.516;2023-04-26T09:14:25;94170.16;;;8.55;68.75
71107;BME280;58763;47.982;11.516;2023-04-26T09:16:52;94172.25;;;8.73;70.06
71107;BME280;58763;47.982;11.516;2023-04-26T09:19:36;94171.72;;;8.71;67.71
71107;BME280;58763;47.982;11.516;2023-04-26T09:22:03;94173.56;;;8.90;67.23
71107;BME280;58763;47.982;11.516;2023-04-26T09:25:02;94166.38;;;8.66;66.64
71107;BME280;58763;47.982;11.516;2023-04-26T09:27:35;94172.75;;;8.85;67.46
71107;BME280;58763;47.982;11.516;2023-04-26T09:30:06;94170.94;;;8.70;66.65
71107;BME280;58763;47.982;11.516;2023-04-26T09:32:58;94170.63;;;8.82;66.83
71107;BME280;58763;47.982;11.516;2023-04-26T09:35:34;94164.38;;;8.91;66.12
71107;BME280;58763;47.982;11.516;2023-04-26T09:38:16;94170.91;;;8.80;65.50
71107;BME280;58763;47.982;11.516;2023-04-26T09:40:44;94176.78;;;8.92;65.49
71107;BME280;58763;47.982;11.516;2023-04-26T09:43:11;94173.53;;;9.00;66.79
71107;BME280;58763;47.982;11.516;2023-04-26T09:45:49;94174.50;;;9.25;67.03
71107;BME280;58763;47.982;11.516;2023-04-26T09:48:21;94165.91;;;9.18;64.91
71107;BME280;58763;47.982;11.516;2023-04-26T09:50:52;94162.38;;;9.22;64.66
71107;BME280;58763;47.982;11.516;2023-04-26T09:53:32;94157.06;;;9.56;65.03
71107;BME280;58763;47.982;11.516;2023-04-26T09:56:11;94159.78;;;9.51;63.38
71107;BME280;58763;47.982;11.516;2023-04-26T10:01:17;94170.88;;;9.88;63.82
71107;BME280;58763;47.982;11.516;2023-04-26T10:03:44;94152.78;;;9.89;61.72
71107;BME280;58763;47.982;11.516;2023-04-26T10:06:14;94163.72;;;10.07;61.55
71107;BME280;58763;47.982;11.516;2023-04-26T10:08:39;94155.16;;;9.95;61.73
71107;BME280;58763;47.982;11.516;2023-04-26T10:11:06;94152.94;;;10.02;59.76
71107;BME280;58763;47.982;11.516;2023-04-26T10:13:39;94145.28;;;10.19;62.16
71107;BME280;58763;47.982;11.516;2023-04-26T10:16:06;94151.91;;;9.98;58.73
71107;BME280;58763;47.982;11.516;2023-04-26T10:18:32;94148.13;;;9.94;57.09
71107;BME280;58763;47.982;11.516;2023-04-26T10:21:03;94144.88;;;9.63;57.71
71107;BME280;58763;47.982;11.516;2023-04-26T10:23:30;94147.34;;;9.55;58.35
71107;BME280;58763;47.982;11.516;2023-04-26T10:25:57;94143.91;;;9.44;59.60
71107;BME280;58763;47.982;11.516;2023-04-26T10:31:13;94142.97;;;9.64;59.37
71107;BME280;58763;47.982;11.516;2023-04-26T10:33:38;94144.03;;;9.68;57.21
71107;BME280;58763;47.982;11.516;2023-04-26T10:36:09;94144.75;;;9.79;57.96
71107;BME280;58763;47.982;11.516;2023-04-26T10:38:38;94140.47;;;10.11;59.22
71107;BME280;58763;47.982;11.516;2023-04-26T10:41:35;94134.13;;;10.55;57.11
71107;BME280;58763;47.982;11.516;2023-04-26T10:44:35;94127.84;;;10.83;53.90
71107;BME280;58763;47.982;11.516;2023-04-26T10:47:04;94131.47;;;10.97;53.68
71107;BME280;58763;47.982;11.516;2023-04-26T10:49:42;94115.13;;;10.60;53.95
71107;BME280;58763;47.982;11.516;2023-04-26T10:52:14;94116.28;;;10.54;56.14
71107;BME280;58763;47.982;11.516;2023-04-26T10:55:01;94118.78;;;10.21;55.46
71107;BME280;58763;47.982;11.516;2023-04-26T10:57:50;94114.34;;;10.59;57.99
71107;BME280;58763;47.982;11.516;2023-04-26T11:00:18;94111.75;;;10.96;56.98
71107;BME280;58763;47.982;11.516;2023-04-26T11:05:39;94101.34;;;11.64;54.48
71107;BME280;58763;47.982;11.516;2023-04-26T11:10:36;94095.19;;;11.96;53.46
71107;BME280;58763;47.982;11.516;2023-04-26T11:13:03;94103.53;;;11.81;50.16
71107;BME280;58763;47.982;11.516;2023-04-26T11:15:32;94087.47;;;11.71;50.41
71107;BME280;58763;47.982;11.516;2023-04-26T11:18:01;94083.09;;;12.21;49.83
71107;BME280;58763;47.982;11.516;2023-04-26T11:20:28;94080.56;;;12.57;47.32
71107;BME280;58763;47.982;11.516;2023-04-26T11:22:55;94076.22;;;12.42;49.08
71107;BME280;58763;47.982;11.516;2023-04-26T11:25:24;94083.81;;;12.26;48.70
71107;BME280;58763;47.982;11.516;2023-04-26T11:27:50;94083.00;;;12.26;50.29
71107;BME280;58763;47.982;11.516;2023-04-26T11:30:17;94079.38;;;12.17;50.51
71107;BME280;58763;47.982;11.516;2023-04-26T11:32:45;94078.22;;;12.36;49.96
71107;BME280;58763;47.982;11.516;2023-04-26T11:35:10;94074.47;;;12.32;49.01
71107;BME280;58763;47.982;11.516;2023-04-26T11:37:36;94081.78;;;12.18;50.17
71107;BME280;58763;47.982;11.516;2023-04-26T11:40:02;94080.81;;;12.28;51.26
71107;BME280;58763;47.982;11.516;2023-04-26T11:42:28;94084.25;;;12.47;51.24
71107;BME280;58763;47.982;11.516;2023-04-26T11:44:55;94079.88;;;12.65;50.41
71107;BME280;58763;47.982;11.516;2023-04-26T11:47:21;94088.69;;;12.70;50.86
71107;BME280;58763;47.982;11.516;2023-04-26T11:49:47;94082.81;;;12.22;46.33
71107;BME280;58763;47.982;11.516;2023-04-26T11:52:13;94092.50;;;12.10;47.77
71107;BME280;58763;47.982;11.516;2023-04-26T11:54:39;94095.31;;;11.86;48.19
71107;BME280;58763;47.982;11.516;2023-04-26T11:57:14;94094.78;;;11.09;49.83
71107;BME280;58763;47.982;11.516;2023-04-26T11:59:40;94085.22;;;10.98;53.02
71107;BME280;58763;47.982;11.516;2023-04-26T12:02:06;94080.03;;;11.39;53.31
71107;BME280;58763;47.982;11.516;2023-04-26T12:04:33;94085.38;;;11.82;51.87
71107;BME280;58763;47.982;11.516;2023-04-26T12:06:59;94092.25;;;12.25;51.13
71107;BME280;58763;47.982;11.516;2023-04-26T12:09:28;94091.06;;;11.99;47.43
71107;BME280;58763;47.982;11.516;2023-04-26T12:12:02;94092.97;;;11.98;46.63
71107;BME280;58763;47.982;11.516;2023-04-26T12:14:35;94087.91;;;12.10;48.18
71107;BME280;58763;47.982;11.516;2023-04-26T12:17:02;94083.84;;;12.40;47.43
71107;BME280;58763;47.982;11.516;2023-04-26T12:19:34;94083.66;;;12.77;47.83
71107;BME280;58763;47.982;11.516;2023-04-26T12:22:04;94088.19;;;12.68;44.17
71107;BME280;58763;47.982;11.516;2023-04-26T12:24:32;94087.06;;;12.42;45.07
71107;BME280;58763;47.982;11.516;2023-04-26T12:27:00;94084.41;;;12.23;46.47
71107;BME280;58763;47.982;11.516;2023-04-26T12:29:27;94089.06;;;12.36;48.26
71107;BME280;58763;47.982;11.516;2023-04-26T12:31:55;94090.03;;;12.13;49.64
71107;BME280;58763;47.982;11.516;2023-04-26T12:34:21;94078.28;;;12.18;46.28
71107;BME280;58763;47.982;11.516;2023-04-26T12:36:47;94082.72;;;11.95;44.77
71107;BME280;58763;47.982;11.516;2023-04-26T12:39:13;94086.47;;;11.99;46.95
71107;BME280;58763;47.982;11.516;2023-04-26T12:41:43;94081.16;;;12.08;47.23
71107;BME280;58763;47.982;11.516;2023-04-26T12:44:10;94082.41;;;11.83;47.75
71107;BME280;58763;47.982;11.516;2023-04-26T12:46:36;94078.19;;;11.91;48.61
71107;BME280;58763;47.982;11.516;2023-04-26T12:49:02;94064.50;;;11.63;47.32
71107;BME280;58763;47.982;11.516;2023-04-26T12:51:28;94073.66;;;11.86;49.01
71107;BME280;58763;47.982;11.516;2023-04-26T12:53:54;94069.91;;;12.01;46.83
71107;BME280;58763;47.982;11.516;2023-04-26T12:56:20;94068.59;;;11.98;46.73
71107;BME280;58763;47.982;11.516;2023-04-26T12:58:47;94070.91;;;12.05;47.74
71107;BME280;58763;47.982;11.516;2023-04-26T13:01:13;94066.03;;;11.88;45.34
71107;BME280;58763;47.982;11.516;2023-04-26T13:03:39;94067.84;;;11.93;47.86
71107;BME280;58763;47.982;11.516;2023-04-26T13:06:04;94066.25;;;11.92;49.90
71107;BME280;58763;47.982;11.516;2023-04-26T13:08:30;94063.97;;;11.99;49.62
71107;BME280;58763;47.982;11.516;2023-04-26T13:10:56;94064.03;;;12.26;49.06
71107;BME280;58763;47.982;11.516;2023-04-26T13:13:23;94057.94;;;12.47;47.69